createdAt,value
2023-05-24T00:00:44.291Z,1013.72
2023-05-24T00:01:44.117Z,1013.72
2023-05-24T00:02:44.174Z,1013.73
2023-05-24T00:03:44.296Z,1013.73
2023-05-24T00:04:44.152Z,1013.72
2023-05-24T00:05:44.124Z,1013.71
2023-05-24T00:06:44.126Z,1013.71
2023-05-24T00:07:44.153Z,1013.74
2023-05-24T00:08:44.113Z,1013.77
2023-05-24T00:09:44.118Z,1013.72
2023-05-24T00:10:44.401Z,1013.72
2023-05-24T00:11:44.120Z,1013.76
2023-05-24T00:12:44.122Z,1013.80
2023-05-24T00:13:44.121Z,1013.76
2023-05-24T00:14:44.135Z,1013.79
2023-05-24T00:15:44.127Z,1013.74
2023-05-24T00:16:44.158Z,1013.75
2023-05-24T00:17:44.136Z,1013.79
2023-05-24T00:18:44.123Z,1013.75
2023-05-24T00:19:44.132Z,1013.76
2023-05-24T00:20:44.385Z,1013.74
2023-05-24T00:21:44.119Z,1013.72
2023-05-24T00:22:44.132Z,1013.77
2023-05-24T00:23:44.139Z,1013.74
2023-05-24T00:24:44.131Z,1013.80
2023-05-24T00:25:44.130Z,1013.73
2023-05-24T00:26:44.123Z,1013.78
2023-05-24T00:27:44.125Z,1013.80
2023-05-24T00:28:44.130Z,1013.81
2023-05-24T00:29:44.119Z,1013.78
2023-05-24T00:30:44.319Z,1013.82
2023-05-24T00:31:44.140Z,1013.80
2023-05-24T00:32:44.147Z,1013.79
2023-05-24T00:33:44.142Z,1013.78
2023-05-24T00:34:44.119Z,1013.81
2023-05-24T00:35:44.127Z,1013.81
2023-05-24T00:36:44.125Z,1013.81
2023-05-24T00:37:44.226Z,1013.80
2023-05-24T00:38:44.126Z,1013.77
2023-05-24T00:39:44.152Z,1013.77
2023-05-24T00:40:44.298Z,1013.79
2023-05-24T00:41:44.124Z,1013.78
2023-05-24T00:42:44.125Z,1013.75
2023-05-24T00:43:44.122Z,1013.78
2023-05-24T00:44:44.452Z,1013.77
2023-05-24T00:45:44.255Z,1013.78
2023-05-24T00:46:44.192Z,1013.78
2023-05-24T00:47:44.166Z,1013.76
2023-05-24T00:48:44.153Z,1013.79
2023-05-24T00:49:44.126Z,1013.76
2023-05-24T00:50:44.285Z,1013.76
2023-05-24T00:51:44.448Z,1013.74
2023-05-24T00:52:44.124Z,1013.74
2023-05-24T00:53:44.124Z,1013.80
2023-05-24T00:54:44.128Z,1013.78
2023-05-24T00:55:44.145Z,1013.82
2023-05-24T00:56:44.124Z,1013.81
2023-05-24T00:57:44.122Z,1013.83
2023-05-24T00:58:44.144Z,1013.80
2023-05-24T00:59:44.124Z,1013.77
2023-05-24T01:00:44.128Z,1013.81
2023-05-24T01:01:44.235Z,1013.76
2023-05-24T01:02:44.252Z,1013.78
2023-05-24T01:03:44.563Z,1013.78
2023-05-24T01:04:44.141Z,1013.80
2023-05-24T01:05:44.127Z,1013.82
2023-05-24T01:06:44.139Z,1013.81
2023-05-24T01:07:44.126Z,1013.80
2023-05-24T01:08:44.136Z,1013.81
2023-05-24T01:09:44.128Z,1013.74
2023-05-24T01:10:44.673Z,1013.76
2023-05-24T01:11:44.158Z,1013.79
2023-05-24T01:12:44.138Z,1013.80
2023-05-24T01:13:44.129Z,1013.83
2023-05-24T01:14:44.137Z,1013.82
2023-05-24T01:15:44.153Z,1013.87
2023-05-24T01:16:44.141Z,1013.84
2023-05-24T01:17:44.142Z,1013.83
2023-05-24T01:18:44.455Z,1013.88
2023-05-24T01:19:44.129Z,1013.88
2023-05-24T01:20:44.524Z,1013.85
2023-05-24T01:21:44.129Z,1013.87
2023-05-24T01:22:44.139Z,1013.85
2023-05-24T01:23:44.129Z,1013.84
2023-05-24T01:24:44.142Z,1013.84
2023-05-24T01:25:44.130Z,1013.83
2023-05-24T01:26:44.127Z,1013.80
2023-05-24T01:27:44.156Z,1013.82
2023-05-24T01:28:44.132Z,1013.84
2023-05-24T01:29:44.133Z,1013.81
2023-05-24T01:30:44.281Z,1013.84
2023-05-24T01:31:44.154Z,1013.82
2023-05-24T01:32:44.209Z,1013.85
2023-05-24T01:33:44.132Z,1013.87
2023-05-24T01:34:44.439Z,1013.88
2023-05-24T01:35:44.134Z,1013.86
2023-05-24T01:36:44.140Z,1013.87
2023-05-24T01:37:44.127Z,1013.88
2023-05-24T01:38:44.134Z,1013.87
2023-05-24T01:39:44.229Z,1013.88
2023-05-24T01:40:44.695Z,1013.86
2023-05-24T01:41:44.128Z,1013.89
2023-05-24T01:42:44.140Z,1013.92
2023-05-24T01:43:44.454Z,1013.92
2023-05-24T01:44:44.139Z,1013.94
2023-05-24T01:45:44.144Z,1013.93
2023-05-24T01:46:44.152Z,1013.93
2023-05-24T01:47:44.212Z,1013.98
2023-05-24T01:52:00.238Z,1014.01
2023-05-24T01:53:00.075Z,1014.02
2023-05-24T01:54:00.075Z,1014.06
2023-05-24T01:55:00.067Z,1014.00
2023-05-24T01:56:00.104Z,1014.02
2023-05-24T01:57:00.072Z,1014.03
2023-05-24T01:58:00.084Z,1014.05
2023-05-24T01:59:00.113Z,1014.09
2023-05-24T02:00:00.066Z,1014.04
2023-05-24T02:01:00.123Z,1014.08
2023-05-24T02:02:00.145Z,1014.10
2023-05-24T02:03:00.162Z,1014.07
2023-05-24T02:04:00.064Z,1014.07
2023-05-24T02:05:00.100Z,1014.06
2023-05-24T02:06:00.071Z,1014.04
2023-05-24T02:07:00.064Z,1014.07
2023-05-24T02:08:00.065Z,1014.07
2023-05-24T02:09:00.073Z,1014.03
2023-05-24T02:10:00.092Z,1014.05
2023-05-24T02:11:00.079Z,1014.05
2023-05-24T02:12:00.094Z,1014.06
2023-05-24T02:13:00.119Z,1014.06
2023-05-24T02:14:00.066Z,1014.05
2023-05-24T02:15:00.153Z,1014.06
2023-05-24T02:16:00.075Z,1014.03
2023-05-24T02:17:00.100Z,1014.05
2023-05-24T02:18:00.076Z,1014.05
2023-05-24T02:19:00.068Z,1014.04
2023-05-24T02:20:00.115Z,1014.04
2023-05-24T02:21:00.068Z,1014.03
2023-05-24T02:22:00.068Z,1014.04
2023-05-24T02:23:00.221Z,1014.01
2023-05-24T02:24:00.061Z,1014.01
2023-05-24T02:25:00.097Z,1013.99
2023-05-24T02:26:00.068Z,1013.97
2023-05-24T02:27:00.094Z,1013.98
2023-05-24T02:28:00.087Z,1013.94
2023-05-24T02:29:00.062Z,1013.95
2023-05-24T02:30:00.067Z,1013.91
2023-05-24T02:31:00.157Z,1013.86
2023-05-24T02:32:00.059Z,1013.89
2023-05-24T02:33:00.137Z,1013.90
2023-05-24T02:34:00.065Z,1013.91
2023-05-24T02:35:00.090Z,1013.86
2023-05-24T02:36:00.092Z,1013.88
2023-05-24T02:37:00.071Z,1013.88
2023-05-24T02:38:00.061Z,1013.91
2023-05-24T02:39:00.061Z,1013.89
2023-05-24T02:40:00.060Z,1013.90
2023-05-24T02:41:00.065Z,1013.89
2023-05-24T02:42:00.157Z,1013.90
2023-05-24T02:43:00.081Z,1013.88
2023-05-24T02:44:00.097Z,1013.87
2023-05-24T02:45:00.068Z,1013.87
2023-05-24T02:46:00.107Z,1013.89
2023-05-24T02:47:00.133Z,1013.88
2023-05-24T02:48:00.194Z,1013.87
2023-05-24T02:49:00.074Z,1013.86
2023-05-24T02:50:00.071Z,1013.85
2023-05-24T02:51:00.067Z,1013.88
2023-05-24T02:52:00.066Z,1013.92
2023-05-24T02:53:00.077Z,1013.93
2023-05-24T02:54:00.060Z,1013.91
2023-05-24T02:55:00.063Z,1013.91
2023-05-24T02:56:00.060Z,1013.90
2023-05-24T02:57:00.065Z,1013.87
2023-05-24T02:58:03.492Z,1013.94
2023-05-24T02:59:00.062Z,1013.90
2023-05-24T03:00:00.070Z,1013.95
2023-05-24T03:01:00.060Z,1013.99
2023-05-24T03:02:00.253Z,1013.96
2023-05-24T03:03:00.197Z,1013.98
2023-05-24T03:04:00.187Z,1013.97
2023-05-24T03:05:00.065Z,1013.95
2023-05-24T03:06:00.056Z,1013.97
2023-05-24T03:07:00.056Z,1013.96
2023-05-24T03:08:00.055Z,1013.99
2023-05-24T03:09:00.058Z,1013.93
2023-05-24T03:10:00.079Z,1013.91
2023-05-24T03:11:42.595Z,1013.97
2023-05-24T03:12:42.607Z,1013.97
2023-05-24T03:13:42.595Z,1014.00
2023-05-24T03:14:42.600Z,1013.95
2023-05-24T03:15:42.602Z,1013.98
2023-05-24T03:16:42.711Z,1013.97
2023-05-24T03:17:42.664Z,1013.97
2023-05-24T03:18:42.625Z,1014.01
2023-05-24T03:19:42.604Z,1013.99
2023-05-24T03:20:42.865Z,1013.97
2023-05-24T03:21:42.600Z,1013.94
2023-05-24T03:22:42.608Z,1014.00
2023-05-24T03:23:42.602Z,1014.00
2023-05-24T03:24:42.602Z,1013.99
2023-05-24T03:25:42.599Z,1014.00
2023-05-24T03:26:42.602Z,1014.01
2023-05-24T03:27:42.603Z,1014.00
2023-05-24T03:28:42.612Z,1013.99
2023-05-24T03:29:42.615Z,1013.98
2023-05-24T03:30:42.965Z,1014.01
2023-05-24T03:31:42.657Z,1014.02
2023-05-24T03:32:42.647Z,1014.04
2023-05-24T03:33:42.607Z,1014.05
2023-05-24T03:34:42.623Z,1014.03
2023-05-24T03:35:42.610Z,1014.03
2023-05-24T03:36:42.604Z,1014.04
2023-05-24T03:37:42.611Z,1014.03
2023-05-24T03:38:42.608Z,1014.05
2023-05-24T03:39:42.598Z,1014.08
2023-05-24T03:40:42.780Z,1014.05
2023-05-24T03:41:42.603Z,1014.04
2023-05-24T03:42:42.632Z,1014.05
2023-05-24T03:43:42.601Z,1014.09
2023-05-24T03:44:42.601Z,1014.10
2023-05-24T03:45:42.654Z,1014.09
2023-05-24T03:46:42.660Z,1014.08
2023-05-24T03:47:42.675Z,1014.09
2023-05-24T03:48:42.605Z,1014.10
2023-05-24T03:49:42.603Z,1014.12
2023-05-24T03:50:42.879Z,1014.13
2023-05-24T03:51:42.601Z,1014.15
2023-05-24T03:52:42.612Z,1014.17
2023-05-24T03:53:42.601Z,1014.16
2023-05-24T03:54:42.609Z,1014.12
2023-05-24T03:55:42.612Z,1014.19
2023-05-24T03:56:42.603Z,1014.22
2023-05-24T03:57:42.600Z,1014.24
2023-05-24T03:58:42.611Z,1014.23
2023-05-24T03:59:42.598Z,1014.24
2023-05-24T04:00:42.830Z,1014.24
2023-05-24T04:01:42.604Z,1014.27
2023-05-24T04:02:42.839Z,1014.24
2023-05-24T04:03:42.670Z,1014.28
2023-05-24T04:04:42.599Z,1014.26
2023-05-24T04:05:42.604Z,1014.26
2023-05-24T04:06:42.620Z,1014.28
2023-05-24T04:07:42.597Z,1014.30
2023-05-24T04:08:42.601Z,1014.30
2023-05-24T04:09:42.598Z,1014.24
2023-05-24T04:10:42.854Z,1014.26
2023-05-24T04:11:42.601Z,1014.27
2023-05-24T04:12:42.601Z,1014.28
2023-05-24T04:13:42.594Z,1014.30
2023-05-24T04:14:42.598Z,1014.27
2023-05-24T04:15:42.595Z,1014.34
2023-05-24T04:16:42.629Z,1014.30
2023-05-24T04:17:42.799Z,1014.31
2023-05-24T04:18:42.688Z,1014.34
2023-05-24T04:19:42.598Z,1014.35
2023-05-24T04:20:42.750Z,1014.31
2023-05-24T04:21:42.600Z,1014.35
2023-05-24T04:22:42.716Z,1014.34
2023-05-24T04:23:42.598Z,1014.36
2023-05-24T04:24:42.629Z,1014.31
2023-05-24T04:25:42.596Z,1014.40
2023-05-24T04:26:42.599Z,1014.39
2023-05-24T04:27:42.607Z,1014.41
2023-05-24T04:28:42.607Z,1014.37
2023-05-24T04:29:42.596Z,1014.37
2023-05-24T04:30:42.791Z,1014.38
2023-05-24T04:31:42.731Z,1014.40
2023-05-24T04:32:42.628Z,1014.40
2023-05-24T04:33:42.599Z,1014.39
2023-05-24T04:34:42.600Z,1014.39
2023-05-24T04:35:42.600Z,1014.39
2023-05-24T04:36:42.604Z,1014.43
2023-05-24T04:37:42.615Z,1014.42
2023-05-24T04:38:42.653Z,1014.43
2023-05-24T04:39:42.602Z,1014.48
2023-05-24T04:40:42.851Z,1014.49
2023-05-24T04:41:42.597Z,1014.49
2023-05-24T04:42:42.605Z,1014.51
2023-05-24T04:43:42.598Z,1014.50
2023-05-24T04:44:42.600Z,1014.51
2023-05-24T04:45:42.608Z,1014.55
2023-05-24T04:46:42.643Z,1014.52
2023-05-24T04:47:42.684Z,1014.53
2023-05-24T04:48:42.609Z,1014.61
2023-05-24T04:49:42.598Z,1014.60
2023-05-24T04:50:42.958Z,1014.62
2023-05-24T04:51:42.606Z,1014.61
2023-05-24T04:52:42.605Z,1014.63
2023-05-24T04:53:42.604Z,1014.66
2023-05-24T04:54:42.624Z,1014.65
2023-05-24T04:55:42.603Z,1014.65
2023-05-24T04:56:42.610Z,1014.70
2023-05-24T04:57:42.604Z,1014.71
2023-05-24T04:58:42.624Z,1014.71
2023-05-24T04:59:42.609Z,1014.71
2023-05-24T05:00:42.786Z,1014.72
2023-05-24T05:01:42.624Z,1014.80
2023-05-24T05:02:42.624Z,1014.73
2023-05-24T05:03:42.694Z,1014.79
2023-05-24T05:04:42.636Z,1014.78
2023-05-24T05:05:42.602Z,1014.82
2023-05-24T05:06:42.610Z,1014.83
2023-05-24T05:07:42.602Z,1014.81
2023-05-24T05:08:42.611Z,1014.83
2023-05-24T05:09:42.598Z,1014.84
2023-05-24T05:10:42.961Z,1014.83
2023-05-24T05:11:42.610Z,1014.87
2023-05-24T05:12:42.602Z,1014.87
2023-05-24T05:13:42.598Z,1014.89
2023-05-24T05:14:42.606Z,1014.90
2023-05-24T05:15:42.952Z,1014.95
2023-05-24T05:16:42.628Z,1014.93
2023-05-24T05:17:42.672Z,1014.89
2023-05-24T05:18:42.615Z,1014.91
2023-05-24T05:19:42.600Z,1014.88
2023-05-24T05:20:42.873Z,1014.91
2023-05-24T05:21:42.605Z,1014.89
2023-05-24T05:22:42.601Z,1014.93
2023-05-24T05:23:42.604Z,1014.93
2023-05-24T05:24:42.615Z,1014.96
2023-05-24T05:25:42.604Z,1014.98
2023-05-24T05:26:42.643Z,1015.02
2023-05-24T05:27:42.609Z,1015.02
2023-05-24T05:28:42.613Z,1015.03
2023-05-24T05:29:42.600Z,1015.01
2023-05-24T05:30:42.827Z,1015.02
2023-05-24T05:31:42.604Z,1015.02
2023-05-24T05:32:42.687Z,1015.07
2023-05-24T05:33:42.637Z,1015.07
2023-05-24T05:34:42.610Z,1015.09
2023-05-24T05:35:42.605Z,1015.09
2023-05-24T05:36:42.626Z,1015.11
2023-05-24T05:37:42.605Z,1015.13
2023-05-24T05:38:42.617Z,1015.14
2023-05-24T05:39:42.612Z,1015.14
2023-05-24T05:40:42.944Z,1015.19
2023-05-24T05:41:44.720Z,1015.20
2023-05-24T05:42:42.645Z,1015.20
2023-05-24T05:43:42.610Z,1015.16
2023-05-24T05:44:42.612Z,1015.20
2023-05-24T05:45:42.624Z,1015.20
2023-05-24T05:46:42.618Z,1015.26
2023-05-24T05:47:42.635Z,1015.22
2023-05-24T05:48:44.216Z,1015.17
2023-05-24T05:49:42.610Z,1015.23
2023-05-24T05:50:42.877Z,1015.23
2023-05-24T05:51:42.618Z,1015.26
2023-05-24T05:52:42.616Z,1015.22
2023-05-24T05:53:42.619Z,1015.22
2023-05-24T05:54:42.639Z,1015.22
2023-05-24T05:55:42.617Z,1015.24
2023-05-24T05:56:42.626Z,1015.21
2023-05-24T05:57:42.616Z,1015.23
2023-05-24T05:58:42.638Z,1015.18
2023-05-24T05:59:42.611Z,1015.19
2023-05-24T06:00:42.917Z,1015.23
2023-05-24T06:01:42.620Z,1015.23
2023-05-24T06:02:42.703Z,1015.24
2023-05-24T06:03:42.726Z,1015.27
2023-05-24T06:04:42.655Z,1015.25
2023-05-24T06:05:42.624Z,1015.30
2023-05-24T06:06:42.615Z,1015.30
2023-05-24T06:07:42.619Z,1015.27
2023-05-24T06:08:42.637Z,1015.30
2023-05-24T06:09:42.627Z,1015.34
2023-05-24T06:10:42.875Z,1015.37
2023-05-24T06:11:42.617Z,1015.32
2023-05-24T06:12:42.618Z,1015.39
2023-05-24T06:13:42.625Z,1015.42
2023-05-24T06:14:43.095Z,1015.44
2023-05-24T06:15:42.668Z,1015.49
2023-05-24T06:16:42.641Z,1015.48
2023-05-24T06:17:42.652Z,1015.50
2023-05-24T06:18:50.158Z,1015.48
2023-05-24T06:19:42.619Z,1015.54
2023-05-24T06:20:42.919Z,1015.55
2023-05-24T06:21:42.625Z,1015.56
2023-05-24T06:22:42.631Z,1015.51
2023-05-24T06:23:42.621Z,1015.57
2023-05-24T06:24:42.623Z,1015.57
2023-05-24T06:25:42.621Z,1015.56
2023-05-24T06:26:42.628Z,1015.55
2023-05-24T06:27:42.632Z,1015.52
2023-05-24T06:28:42.628Z,1015.56
2023-05-24T06:29:42.665Z,1015.56
2023-05-24T06:30:43.060Z,1015.58
2023-05-24T06:31:42.693Z,1015.58
2023-05-24T06:32:42.679Z,1015.58
2023-05-24T06:33:46.855Z,1015.59
2023-05-24T06:34:42.626Z,1015.59
2023-05-24T06:35:42.627Z,1015.61
2023-05-24T06:36:42.655Z,1015.66
2023-05-24T06:37:42.635Z,1015.66
2023-05-24T06:38:42.628Z,1015.66
2023-05-24T06:39:42.627Z,1015.63
2023-05-24T06:40:42.833Z,1015.61
2023-05-24T06:41:42.630Z,1015.66
2023-05-24T06:42:42.639Z,1015.69
2023-05-24T06:43:42.631Z,1015.71
2023-05-24T06:44:42.638Z,1015.72
2023-05-24T06:45:42.632Z,1015.72
2023-05-24T06:46:42.786Z,1015.78
2023-05-24T06:47:42.719Z,1015.78
2023-05-24T06:48:42.724Z,1015.83
2023-05-24T06:49:42.634Z,1015.85
2023-05-24T06:50:42.999Z,1015.86
2023-05-24T06:51:42.637Z,1015.88
2023-05-24T06:52:42.642Z,1015.88
2023-05-24T06:53:42.647Z,1015.88
2023-05-24T06:54:42.641Z,1015.93
2023-05-24T06:55:42.651Z,1015.95
2023-05-24T06:56:42.646Z,1015.93
2023-05-24T06:57:42.643Z,1015.93
2023-05-24T06:58:42.647Z,1016.02
2023-05-24T06:59:42.645Z,1015.98
2023-05-24T07:00:42.927Z,1016.02
2023-05-24T07:01:42.688Z,1016.04
2023-05-24T07:02:42.707Z,1016.11
2023-05-24T07:03:42.700Z,1016.03
2023-05-24T07:04:42.686Z,1016.03
2023-05-24T07:05:42.656Z,1016.03
2023-05-24T07:06:42.656Z,1016.05
2023-05-24T07:07:42.661Z,1016.09
2023-05-24T07:08:42.668Z,1016.08
2023-05-24T07:09:42.693Z,1016.05
2023-05-24T07:10:42.850Z,1016.01
2023-05-24T07:11:42.693Z,1016.04
2023-05-24T07:12:42.660Z,1016.00
2023-05-24T07:13:42.651Z,1016.01
2023-05-24T07:14:42.654Z,1015.99
2023-05-24T07:15:42.662Z,1016.06
2023-05-24T07:16:42.691Z,1016.09
2023-05-24T07:17:42.677Z,1016.06
2023-05-24T07:18:42.749Z,1016.14
2023-05-24T07:19:42.655Z,1016.12
2023-05-24T07:20:42.913Z,1016.14
2023-05-24T07:21:42.666Z,1016.14
2023-05-24T07:22:42.667Z,1016.16
2023-05-24T07:23:42.667Z,1016.16
2023-05-24T07:24:42.666Z,1016.19
2023-05-24T07:25:42.660Z,1016.23
2023-05-24T07:26:42.658Z,1016.21
2023-05-24T07:27:42.680Z,1016.28
2023-05-24T07:28:42.669Z,1016.30
2023-05-24T07:29:42.678Z,1016.29
2023-05-24T07:30:42.675Z,1016.29
2023-05-24T07:31:42.742Z,1016.36
2023-05-24T07:32:42.779Z,1016.32
2023-05-24T07:33:42.684Z,1016.33
2023-05-24T07:34:42.760Z,1016.34
2023-05-24T07:35:42.677Z,1016.36
2023-05-24T07:36:42.673Z,1016.38
2023-05-24T07:37:42.679Z,1016.42
2023-05-24T07:38:42.678Z,1016.47
2023-05-24T07:39:42.679Z,1016.51
2023-05-24T07:40:43.052Z,1016.41
2023-05-24T07:41:42.681Z,1016.30
2023-05-24T07:42:42.682Z,1016.29
2023-05-24T07:43:42.680Z,1016.32
2023-05-24T07:44:42.700Z,1016.35
2023-05-24T07:45:42.943Z,1016.32
2023-05-24T07:46:42.763Z,1016.32
2023-05-24T07:47:42.702Z,1016.29
2023-05-24T07:48:42.693Z,1016.37
2023-05-24T07:49:42.700Z,1016.45
2023-05-24T07:50:42.937Z,1016.86
2023-05-24T07:51:42.696Z,1016.95
2023-05-24T07:52:42.695Z,1016.87
2023-05-24T07:53:42.706Z,1017.17
2023-05-24T07:54:42.709Z,1017.26
2023-05-24T07:55:42.927Z,1017.33
2023-05-24T07:56:42.696Z,1017.52
2023-05-24T07:57:42.732Z,1018.90
2023-05-24T07:58:42.704Z,1018.94
2023-05-24T07:59:42.702Z,1020.14
2023-05-24T08:00:42.706Z,1017.31
2023-05-24T08:01:42.716Z,1017.90
2023-05-24T08:02:42.823Z,1016.81
2023-05-24T08:03:42.910Z,1016.86
2023-05-24T08:04:42.714Z,1016.71
2023-05-24T08:05:42.946Z,1016.66
2023-05-24T08:06:42.788Z,1016.62
2023-05-24T08:07:42.765Z,1016.63
2023-05-24T08:08:42.756Z,1016.61
2023-05-24T08:09:42.728Z,1016.61
2023-05-24T08:10:42.738Z,1016.55
2023-05-24T08:11:42.735Z,1016.60
2023-05-24T08:12:42.729Z,1016.57
2023-05-24T08:13:42.731Z,1016.53
2023-05-24T08:14:42.732Z,1016.53
2023-05-24T08:15:43.023Z,1016.61
2023-05-24T08:16:42.815Z,1016.68
2023-05-24T08:17:42.769Z,1016.62
2023-05-24T08:18:42.739Z,1016.57
2023-05-24T08:19:42.739Z,1016.58
2023-05-24T08:20:42.810Z,1016.51
2023-05-24T08:21:42.745Z,1016.53
2023-05-24T08:22:43.196Z,1016.51
2023-05-24T08:23:42.749Z,1016.53
2023-05-24T08:24:42.743Z,1016.56
2023-05-24T08:25:42.983Z,1016.55
2023-05-24T08:26:42.755Z,1016.55
2023-05-24T08:27:42.769Z,1016.59
2023-05-24T08:28:42.759Z,1016.56
2023-05-24T08:29:42.765Z,1016.54
2023-05-24T08:30:42.758Z,1016.51
2023-05-24T08:31:42.791Z,1016.55
2023-05-24T08:32:42.802Z,1016.57
2023-05-24T08:33:42.775Z,1016.60
2023-05-24T08:34:42.772Z,1016.58
2023-05-24T08:35:42.959Z,1016.63
2023-05-24T08:36:42.774Z,1016.66
2023-05-24T08:38:42.801Z,1016.70
2023-05-24T08:39:42.777Z,1016.68
2023-05-24T08:40:42.780Z,1016.71
2023-05-24T08:41:43.017Z,1016.72
2023-05-24T08:42:42.885Z,1016.74
2023-05-24T08:43:42.791Z,1016.75
2023-05-24T08:44:42.792Z,1017.01
2023-05-24T08:45:43.100Z,1017.77
2023-05-24T08:46:42.844Z,1016.93
2023-05-24T08:47:42.968Z,1016.89
2023-05-24T08:48:42.871Z,1016.89
2023-05-24T08:49:42.788Z,1016.84
2023-05-24T08:50:42.795Z,1016.81
2023-05-24T08:51:42.801Z,1016.79
2023-05-24T08:52:42.800Z,1016.82
2023-05-24T08:53:42.801Z,1016.74
2023-05-24T08:54:42.841Z,1016.74
2023-05-24T08:55:43.185Z,1016.80
2023-05-24T08:56:42.813Z,1016.79
2023-05-24T08:57:42.811Z,1016.79
2023-05-24T08:58:42.808Z,1016.79
2023-05-24T08:59:42.822Z,1016.81
2023-05-24T09:00:42.817Z,1016.77
2023-05-24T09:01:42.850Z,1016.81
2023-05-24T09:02:42.891Z,1016.77
2023-05-24T09:03:42.862Z,1016.73
2023-05-24T09:04:42.820Z,1016.78
2023-05-24T09:05:43.112Z,1016.77
2023-05-24T09:06:42.826Z,1016.80
2023-05-24T09:07:42.822Z,1016.79
2023-05-24T09:08:43.974Z,1016.81
2023-05-24T09:09:42.835Z,1016.82
2023-05-24T09:10:53.844Z,1016.78
2023-05-24T09:11:42.829Z,1016.80
2023-05-24T09:12:42.834Z,1016.79
2023-05-24T09:13:42.830Z,1016.80
2023-05-24T09:14:42.840Z,1016.80
2023-05-24T09:15:43.204Z,1016.82
2023-05-24T09:16:42.872Z,1016.82
2023-05-24T09:17:42.912Z,1016.85
2023-05-24T09:18:42.843Z,1016.83
2023-05-24T09:19:42.844Z,1016.85
2023-05-24T09:20:43.076Z,1016.86
2023-05-24T09:21:42.844Z,1016.87
2023-05-24T09:22:43.027Z,1016.90
2023-05-24T09:23:42.850Z,1016.85
2023-05-24T09:24:42.853Z,1016.92
2023-05-24T09:25:42.859Z,1016.92
2023-05-24T09:26:42.867Z,1016.86
2023-05-24T09:27:42.847Z,1016.86
2023-05-24T09:28:42.855Z,1016.90
2023-05-24T09:29:42.852Z,1016.87
2023-05-24T09:30:43.076Z,1016.87
2023-05-24T09:31:42.870Z,1016.88
2023-05-24T09:32:42.888Z,1016.96
2023-05-24T09:33:42.861Z,1016.91
2023-05-24T09:34:42.863Z,1016.97
2023-05-24T09:35:42.854Z,1017.00
2023-05-24T09:36:42.868Z,1017.00
2023-05-24T09:37:42.867Z,1017.05
2023-05-24T09:38:42.880Z,1017.02
2023-05-24T09:39:42.857Z,1017.01
2023-05-24T09:40:42.979Z,1017.01
2023-05-24T09:41:42.869Z,1017.07
2023-05-24T09:42:42.885Z,1017.03
2023-05-24T09:43:42.865Z,1016.98
2023-05-24T09:44:42.874Z,1016.94
2023-05-24T09:45:42.905Z,1016.92
2023-05-24T09:46:42.943Z,1016.94
2023-05-24T09:47:42.947Z,1016.93
2023-05-24T09:48:42.878Z,1016.97
2023-05-24T09:49:42.869Z,1016.90
2023-05-24T09:50:43.158Z,1016.90
2023-05-24T09:51:43.054Z,1016.95
2023-05-24T09:52:42.909Z,1016.91
2023-05-24T09:53:42.876Z,1016.95
2023-05-24T09:54:42.885Z,1016.95
2023-05-24T09:55:42.878Z,1016.98
2023-05-24T09:56:42.911Z,1016.99
2023-05-24T09:57:42.886Z,1017.00
2023-05-24T09:58:42.932Z,1017.04
2023-05-24T09:59:42.895Z,1017.02
2023-05-24T10:00:43.609Z,1017.04
2023-05-24T10:01:42.970Z,1017.06
2023-05-24T10:02:52.313Z,1017.05
2023-05-24T10:03:42.901Z,1017.10
2023-05-24T10:04:42.943Z,1017.16
2023-05-24T10:05:42.926Z,1017.18
2023-05-24T10:06:42.911Z,1017.18
2023-05-24T10:07:42.900Z,1017.25
2023-05-24T10:08:42.905Z,1017.25
2023-05-24T10:09:42.905Z,1017.28
2023-05-24T10:10:43.116Z,1017.20
2023-05-24T10:11:42.915Z,1017.26
2023-05-24T10:12:42.920Z,1017.31
2023-05-24T10:13:42.905Z,1017.30
2023-05-24T10:14:42.939Z,1017.29
2023-05-24T10:15:42.908Z,1017.28
2023-05-24T10:16:42.982Z,1017.32
2023-05-24T10:17:42.990Z,1017.26
2023-05-24T10:18:42.920Z,1017.28
2023-05-24T10:19:42.920Z,1017.28
2023-05-24T10:20:43.356Z,1017.31
2023-05-24T10:21:42.930Z,1017.27
2023-05-24T10:22:42.931Z,1017.28
2023-05-24T10:23:42.918Z,1017.22
2023-05-24T10:24:42.920Z,1017.24
2023-05-24T10:25:42.934Z,1017.23
2023-05-24T10:26:42.947Z,1017.23
2023-05-24T10:27:42.924Z,1017.26
2023-05-24T10:28:42.977Z,1017.32
2023-05-24T10:29:42.931Z,1017.25
2023-05-24T10:30:43.403Z,1017.23
2023-05-24T10:31:43.030Z,1017.26
2023-05-24T10:32:43.047Z,1017.23
2023-05-24T10:33:42.949Z,1017.29
2023-05-24T10:34:42.954Z,1017.32
2023-05-24T10:35:42.948Z,1017.34
2023-05-24T10:36:42.949Z,1017.37
2023-05-24T10:37:42.957Z,1017.40
2023-05-24T10:38:42.951Z,1017.37
2023-05-24T10:39:42.942Z,1017.46
2023-05-24T10:40:42.985Z,1017.50
2023-05-24T10:41:42.954Z,1017.50
2023-05-24T10:42:42.967Z,1017.60
2023-05-24T10:43:43.086Z,1017.65
2023-05-24T10:44:42.956Z,1017.89
2023-05-24T10:45:42.958Z,1018.01
2023-05-24T10:46:43.038Z,1017.66
2023-05-24T10:47:42.980Z,1017.60
2023-05-24T10:48:42.978Z,1017.59
2023-05-24T10:49:42.970Z,1017.63
2023-05-24T10:50:43.216Z,1017.71
2023-05-24T10:51:42.971Z,1017.72
2023-05-24T10:52:42.977Z,1018.59
2023-05-24T10:53:42.973Z,1017.92
2023-05-24T10:54:52.668Z,1017.86
2023-05-24T10:55:42.979Z,1017.69
2023-05-24T10:56:42.987Z,1017.87
2023-05-24T10:57:43.001Z,1017.77
2023-05-24T10:58:42.993Z,1018.87
2023-05-24T10:59:42.990Z,1018.25
2023-05-24T11:00:43.027Z,1018.51
2023-05-24T11:01:43.046Z,1018.94
2023-05-24T11:02:43.197Z,1018.70
2023-05-24T11:03:43.014Z,1018.00
2023-05-24T11:04:43.044Z,1017.70
2023-05-24T11:05:45.024Z,1017.71
2023-05-24T11:06:43.024Z,1017.65
2023-05-24T11:07:43.100Z,1017.59
2023-05-24T11:08:43.040Z,1017.58
2023-05-24T11:09:43.041Z,1017.53
2023-05-24T11:10:43.268Z,1017.56
2023-05-24T11:11:43.049Z,1017.55
2023-05-24T11:12:43.067Z,1017.55
2023-05-24T11:13:43.075Z,1017.46
2023-05-24T11:14:43.077Z,1017.45
2023-05-24T11:15:43.078Z,1017.38
2023-05-24T11:16:43.173Z,1017.44
2023-05-24T11:17:43.674Z,1017.42
2023-05-24T11:18:43.138Z,1017.40
2023-05-24T11:19:43.098Z,1017.44
2023-05-24T11:20:43.370Z,1017.48
2023-05-24T11:21:43.220Z,1017.47
2023-05-24T11:22:43.116Z,1017.49
2023-05-24T11:23:43.119Z,1017.59
2023-05-24T11:24:43.128Z,1018.42
2023-05-24T11:25:43.136Z,1018.50
2023-05-24T11:26:43.141Z,1017.55
2023-05-24T11:27:43.142Z,1017.46
2023-05-24T11:28:43.268Z,1017.45
2023-05-24T11:29:43.156Z,1017.46
2023-05-24T11:30:43.438Z,1017.44
2023-05-24T11:31:44.705Z,1017.39
2023-05-24T11:32:43.230Z,1017.39
2023-05-24T11:33:43.181Z,1017.44
2023-05-24T11:34:43.219Z,1017.50
2023-05-24T11:35:43.197Z,1017.67
2023-05-24T11:36:43.206Z,1017.50
2023-05-24T11:37:46.673Z,1017.49
2023-05-24T11:38:43.232Z,1017.46
2023-05-24T11:39:43.218Z,1017.50
2023-05-24T11:40:43.475Z,1017.48
2023-05-24T11:41:43.281Z,1017.48
2023-05-24T11:42:43.244Z,1017.59
2023-05-24T11:43:43.232Z,1017.75
2023-05-24T11:44:43.264Z,1018.10
2023-05-24T11:45:43.329Z,1018.34
2023-05-24T11:46:43.257Z,1018.27
2023-05-24T11:47:43.301Z,1018.12
2023-05-24T11:48:43.262Z,1018.28
2023-05-24T11:49:43.274Z,1018.09
2023-05-24T11:50:49.255Z,1017.63
2023-05-24T11:51:43.359Z,1017.61
2023-05-24T11:52:43.295Z,1017.63
2023-05-24T11:53:43.301Z,1017.62
2023-05-24T11:54:43.327Z,1017.75
2023-05-24T11:55:43.418Z,1018.35
2023-05-24T11:56:43.330Z,1018.44
2023-05-24T11:57:43.336Z,1018.64
2023-05-24T11:58:43.338Z,1018.12
2023-05-24T11:59:43.348Z,1017.84
2023-05-24T12:00:43.594Z,1017.80
2023-05-24T12:01:43.478Z,1017.96
2023-05-24T12:02:43.456Z,1018.08
2023-05-24T12:03:43.463Z,1018.23
2023-05-24T12:04:43.572Z,1018.06
2023-05-24T12:05:43.409Z,1018.21
2023-05-24T12:06:43.450Z,1017.90
2023-05-24T12:07:43.420Z,1018.07
2023-05-24T12:08:43.423Z,1017.77
2023-05-24T12:09:43.436Z,1018.02
2023-05-24T12:10:43.717Z,1017.59